To NAV CANADA Home Page Login to a new session Search on AWWS site Disclaimer Vers la page française équivalente Tips FAQ What's new on the site To the Forecasts and Observations / NOTAM section To "File a Flight Plan" website Publications and other links Update of the User's profile FIC Telephone Numbers My Weather Data Folder Route Weather Data Regional Weather Data Local Weather Data To the Forecasts and Observations / NOTAM section
Request Generated 03/19/2019 at 23:04:39 UTC . Weather information available at that time is displayed.

METAR/TAF

RED LAKE/ON    

METAR CYRL 192300Z 22012G19KT 15SM BKN025 BKN070 04/M02 A2975 RMK SC5AC2 SLP097=
METAR CYRL 192200Z 22012G18KT 15SM BKN026 BKN050 OVC080 04/M02 A2979 RMK SC5SC2AC1 SLP110=
SPECI CYRL 192148Z 22010G18KT 15SM BKN025 BKN050 OVC080 04/M02 A2979 RMK SC5SC2AC1 SLP111=
METAR CYRL 192100Z 22008G16KT 15SM -RA BKN022 OVC080 04/M02 A2983 RMK SC5AS3 SLP125=

TAF CYRL 191946Z 1920/2002 23010KT P6SM -SNRA SCT015 OVC080 TEMPO
1920/2002 3SM -SN OVC015
RMK NXT FCST WILL BE ISSUED AT 201045Z=
Your time UTC time
Weather data provided by Environment Canada and NAV CANADA